Time;durP1;ratioP1;P1;durP2;ratioP2;P2;SDS_P1;SDS_P2;PMS_P1;PMS_P2;Temp;Humidity;BMP_temperature;BMP_pressure;BME280_temperature;BME280_humidity;BME280_pressure;Samples;Min_cycle;Max_cycle;Signal;HPM_P1;HPM_P2
2022/12/21 00:01:28;;;;;;;24.55;10.82;;;;;;;6.74;100.00;100975.63;5050852;28;20049;-76
2022/12/21 00:03:58;;;;;;;38.97;11.05;;;;;;;6.69;100.00;100977.19;5050702;28;20080;-77
2022/12/21 00:06:25;;;;;;;36.70;11.07;;;;;;;6.66;100.00;100979.72;5050727;28;20032;-75
2022/12/21 00:08:53;;;;;;;24.38;10.35;;;;;;;6.63;100.00;100974.34;5052521;28;20060;-77
2022/12/21 00:11:21;;;;;;;48.17;11.02;;;;;;;6.58;100.00;100970.72;5044260;28;20033;-77
2022/12/21 00:13:48;;;;;;;28.95;11.02;;;;;;;6.51;100.00;100972.22;5062693;28;20032;-76
2022/12/21 00:16:16;;;;;;;34.40;12.00;;;;;;;6.48;100.00;100971.22;5064522;28;20039;-77
2022/12/21 00:18:42;;;;;;;29.13;11.15;;;;;;;6.45;100.00;100961.53;5056418;28;20075;-77
2022/12/21 00:21:15;;;;;;;25.88;10.07;;;;;;;6.43;100.00;100963.22;5045685;28;20032;-77
2022/12/21 00:23:42;;;;;;;27.20;10.90;;;;;;;6.44;100.00;100958.88;5046221;28;20389;-76
2022/12/21 00:26:10;;;;;;;34.22;11.88;;;;;;;6.41;100.00;100959.66;5059043;28;20016;-76
2022/12/21 00:28:35;;;;;;;30.58;13.07;;;;;;;6.38;100.00;100955.22;5074235;28;20476;-78
2022/12/21 00:31:09;;;;;;;33.15;13.00;;;;;;;6.35;100.00;100957.72;5066898;28;20027;-78
2022/12/21 00:33:36;;;;;;;26.60;12.85;;;;;;;6.32;100.00;100955.00;5055596;28;20040;-78
2022/12/21 00:36:01;;;;;;;28.75;11.43;;;;;;;6.28;100.00;100945.28;5060922;28;20021;-78
2022/12/21 00:38:27;;;;;;;29.83;10.98;;;;;;;6.27;100.00;100945.19;5052197;28;20033;-77
2022/12/21 00:40:57;;;;;;;25.40;10.43;;;;;;;6.24;100.00;100940.78;5046912;28;20018;-77
2022/12/21 00:43:22;;;;;;;34.25;10.70;;;;;;;6.18;100.00;100943.16;5058125;28;20028;-77
2022/12/21 00:45:47;;;;;;;24.83;11.20;;;;;;;6.14;100.00;100954.34;5042769;28;20039;-78
2022/12/21 00:48:13;;;;;;;27.25;10.93;;;;;;;6.14;100.00;100949.09;5054894;28;20359;-77
2022/12/21 00:50:38;;;;;;;33.53;11.23;;;;;;;6.15;100.00;100945.66;5035564;28;20053;-77
2022/12/21 00:53:03;;;;;;;41.65;12.57;;;;;;;6.11;100.00;100943.78;5045744;28;20382;-76
2022/12/21 00:55:29;;;;;;;32.67;11.40;;;;;;;6.10;100.00;100944.59;5050297;28;20460;-76
2022/12/21 00:57:54;;;;;;;36.83;10.88;;;;;;;6.04;100.00;100943.53;5054161;28;20024;-77
2022/12/21 01:00:20;;;;;;;31.52;11.77;;;;;;;6.01;100.00;100945.16;5051892;28;20095;-76
2022/12/21 01:02:45;;;;;;;32.58;10.90;;;;;;;5.95;100.00;100943.16;5054890;28;20104;-74
2022/12/21 01:05:10;;;;;;;33.85;12.05;;;;;;;5.93;100.00;100946.56;5053127;28;20025;-77
2022/12/21 01:07:36;;;;;;;36.72;12.00;;;;;;;5.86;100.00;100938.50;5052550;28;20021;-78
2022/12/21 01:10:01;;;;;;;38.92;11.63;;;;;;;5.81;100.00;100934.81;5053708;28;20119;-76
2022/12/21 01:12:27;;;;;;;44.63;13.80;;;;;;;5.77;100.00;100935.56;5057745;28;20032;-77
2022/12/21 01:14:52;;;;;;;34.67;12.98;;;;;;;5.73;100.00;100934.53;5053893;28;20118;-77
2022/12/21 01:17:17;;;;;;;33.55;12.45;;;;;;;5.68;100.00;100932.59;5055585;28;20542;-77
2022/12/21 01:19:43;;;;;;;38.00;12.70;;;;;;;5.63;100.00;100935.03;5053793;28;20025;-77
2022/12/21 01:22:08;;;;;;;36.47;13.00;;;;;;;5.58;100.00;100941.78;5048433;28;20166;-76
2022/12/21 01:24:33;;;;;;;36.05;12.48;;;;;;;5.55;100.00;100941.69;5056503;28;20022;-77
2022/12/21 01:26:59;;;;;;;33.65;12.45;;;;;;;5.54;100.00;100939.91;5049497;28;20039;-75
2022/12/21 01:29:24;;;;;;;32.20;12.63;;;;;;;5.52;100.00;100941.53;5050138;28;20031;-77
2022/12/21 01:31:50;;;;;;;31.63;11.30;;;;;;;5.51;100.00;100943.28;5062368;28;20021;-76
2022/12/21 01:34:15;;;;;;;38.80;11.98;;;;;;;5.50;100.00;100943.22;5054391;28;20478;-76
2022/12/21 01:36:40;;;;;;;44.08;13.48;;;;;;;5.50;100.00;100944.09;5052037;28;20391;-77
2022/12/21 01:39:06;;;;;;;30.52;13.23;;;;;;;5.49;100.00;100951.88;5047631;28;20032;-77
2022/12/21 01:41:31;;;;;;;32.63;12.15;;;;;;;5.46;100.00;100960.47;5069654;28;20099;-77
2022/12/21 01:43:56;;;;;;;45.45;14.38;;;;;;;5.49;100.00;100967.53;5054007;28;20070;-77
2022/12/21 01:46:28;;;;;;;30.00;11.65;;;;;;;5.45;100.00;100965.63;5055846;28;20021;-78
2022/12/21 01:49:12;;;;;;;55.38;17.38;;;;;;;5.53;100.00;100969.44;5061195;28;20029;-77
2022/12/21 01:51:38;;;;;;;43.28;15.13;;;;;;;5.55;100.00;100967.78;5051737;28;20066;-78
2022/12/21 01:54:17;;;;;;;52.70;18.00;;;;;;;5.62;100.00;100968.91;5054476;28;20029;-78
2022/12/21 01:56:47;;;;;;;49.80;16.13;;;;;;;5.64;100.00;100962.91;5059282;28;20028;-78
2022/12/21 01:59:23;;;;;;;52.10;17.25;;;;;;;5.63;100.00;100968.06;5072912;28;20047;-76
2022/12/21 02:01:48;;;;;;;59.35;20.48;;;;;;;5.62;100.00;100959.34;5048214;28;20047;-78
2022/12/21 02:04:14;;;;;;;51.53;19.02;;;;;;;5.62;100.00;100958.47;5036578;28;20026;-76
2022/12/21 02:06:39;;;;;;;60.10;19.85;;;;;;;5.66;100.00;100958.63;5063409;28;20035;-78
2022/12/21 02:09:05;;;;;;;54.78;20.75;;;;;;;5.67;100.00;100954.28;5059081;28;20031;-76
2022/12/21 02:11:32;;;;;;;64.78;20.95;;;;;;;5.68;100.00;100957.00;5052607;28;20392;-76
2022/12/21 02:13:57;;;;;;;53.38;21.30;;;;;;;5.67;100.00;100955.19;5051350;28;20108;-77
2022/12/21 02:16:23;;;;;;;64.78;20.73;;;;;;;5.66;100.00;100958.63;5066458;28;20120;-78
2022/12/21 02:19:00;;;;;;;55.25;20.52;;;;;;;5.62;100.00;100955.88;5036462;28;20028;-77
2022/12/21 02:21:33;;;;;;;60.95;20.13;;;;;;;5.59;100.00;100956.63;5051484;28;20056;-75
2022/12/21 02:24:33;;;;;;;57.65;20.35;;;;;;;5.62;100.00;100953.25;5034234;28;20061;-77
2022/12/21 02:27:21;;;;;;;59.50;21.92;;;;;;;5.66;100.00;100952.53;5052968;28;20099;-77
2022/12/21 02:30:11;;;;;;;58.85;20.13;;;;;;;5.68;100.00;100949.16;5071526;28;20033;-77
2022/12/21 02:32:54;;;;;;;73.43;22.00;;;;;;;5.72;100.00;100945.84;5068810;28;20023;-77
2022/12/21 02:35:44;;;;;;;59.25;21.60;;;;;;;5.74;100.00;100944.16;5051805;28;20024;-79
2022/12/21 02:38:27;;;;;;;64.57;21.42;;;;;;;5.76;100.00;100952.03;5053295;28;20444;-79
2022/12/21 02:41:04;;;;;;;63.55;22.67;;;;;;;5.76;100.00;100946.81;5052188;28;20032;-77
2022/12/21 02:44:15;;;;;;;55.65;20.92;;;;;;;5.79;100.00;100946.91;5055432;28;20036;-76
2022/12/21 02:46:53;;;;;;;59.00;21.48;;;;;;;5.83;100.00;100947.94;5039011;28;20028;-77
2022/12/21 02:49:21;;;;;;;70.75;21.15;;;;;;;5.84;100.00;100950.59;5050523;28;20115;-78
2022/12/21 02:51:49;;;;;;;67.88;21.75;;;;;;;5.86;100.00;100950.66;5042197;28;20028;-77
2022/12/21 02:54:16;;;;;;;65.90;21.55;;;;;;;5.87;100.00;100955.06;5051873;28;20029;-77
2022/12/21 02:56:41;;;;;;;65.68;20.60;;;;;;;5.87;100.00;100957.66;5046049;28;20062;-76
2022/12/21 02:59:11;;;;;;;67.70;21.50;;;;;;;5.89;100.00;100953.41;5056558;28;20064;-77
2022/12/21 03:01:40;;;;;;;74.32;20.95;;;;;;;5.93;100.00;100954.38;5067573;28;20480;-78
2022/12/21 03:04:44;;;;;;;60.95;20.90;;;;;;;5.95;100.00;100948.38;5054483;28;20194;-77
2022/12/21 03:07:39;;;;;;;69.70;21.33;;;;;;;5.97;100.00;100946.75;5052675;28;20040;-77
2022/12/21 03:10:10;;;;;;;;;;;;;;;5.98;100.00;100951.19;5036703;28;20040;-76
2022/12/21 03:12:52;;;;;;;64.60;20.00;;;;;;;6.00;100.00;100940.78;5051283;28;19948;-77
2022/12/21 03:15:20;;;;;;;67.30;20.85;;;;;;;5.99;100.00;100934.66;5052144;28;20028;-73
2022/12/21 03:18:01;;;;;;;44.78;18.52;;;;;;;5.95;100.00;100935.34;5050604;28;20064;-77
2022/12/21 03:20:37;;;;;;;51.25;19.98;;;;;;;5.91;100.00;100928.22;5037087;28;20029;-77
2022/12/21 03:23:13;;;;;;;54.80;18.52;;;;;;;5.88;100.00;100930.72;5049217;28;20039;-77
2022/12/21 03:25:44;;;;;;;55.25;19.90;;;;;;;5.84;100.00;100923.63;5031220;28;20036;-79
2022/12/21 03:28:16;;;;;;;52.20;18.48;;;;;;;5.79;100.00;100928.66;5053222;28;20549;-77
2022/12/21 03:30:46;;;;;;;58.80;19.85;;;;;;;5.76;100.00;100925.94;5049432;28;20111;-77
2022/12/21 03:33:17;;;;;;;55.92;19.23;;;;;;;5.76;100.00;100925.94;5040327;28;20029;-78
2022/12/21 03:35:59;;;;;;;49.42;18.40;;;;;;;5.73;100.00;100924.09;5042247;28;20067;-78
2022/12/21 03:38:31;;;;;;;50.60;18.83;;;;;;;5.72;100.00;100914.50;5050884;28;20070;-78
2022/12/21 03:41:01;;;;;;;73.50;21.33;;;;;;;5.72;100.00;100919.72;5051076;28;20098;-78
2022/12/21 03:43:35;;;;;;;63.70;21.23;;;;;;;5.73;100.00;100923.22;5050602;28;20025;-76
2022/12/21 03:46:07;;;;;;;61.63;19.50;;;;;;;5.73;100.00;100921.47;5039484;28;20358;-75
2022/12/21 03:48:54;;;;;;;49.42;18.48;;;;;;;5.73;100.00;100913.66;5050696;28;20108;-78
2022/12/21 03:51:46;;;;;;;66.22;20.10;;;;;;;5.72;100.00;100913.59;5037443;28;20052;-78
2022/12/21 03:54:25;;;;;;;53.20;17.80;;;;;;;5.71;100.00;100904.88;5052127;28;20542;-77
2022/12/21 03:56:51;;;;;;;63.17;20.25;;;;;;;5.68;100.00;100912.59;5036431;28;20033;-78
2022/12/21 03:59:17;;;;;;;66.18;19.60;;;;;;;5.70;100.00;100908.31;5055868;28;20097;-78
2022/12/21 04:01:49;;;;;;;56.80;20.48;;;;;;;5.67;100.00;100905.59;5050395;28;20048;-77
2022/12/21 04:04:24;;;;;;;62.67;20.90;;;;;;;5.67;100.00;100904.69;5047722;28;20481;-77
2022/12/21 04:06:52;;;;;;;57.95;21.42;;;;;;;5.65;100.00;100916.81;5048788;28;20048;-78
2022/12/21 04:09:18;;;;;;;61.72;18.92;;;;;;;5.60;100.00;100919.22;5050058;28;20560;-77
2022/12/21 04:14:27;;;;;;;72.18;20.45;;;;;;;5.56;100.00;100906.91;5040013;28;20116;-76
2022/12/21 04:16:52;;;;;;;61.63;19.60;;;;;;;5.55;100.00;100899.91;5045471;28;20040;-78
2022/12/21 04:22:02;;;;;;;57.47;17.95;;;;;;;5.53;100.00;100901.56;5043263;28;20040;-78
2022/12/21 04:29:55;;;;;;;60.60;18.83;;;;;;;5.45;100.00;100900.38;5036901;28;20036;-78
2022/12/21 04:32:21;;;;;;;48.65;17.27;;;;;;;5.40;100.00;100898.50;5044482;28;20032;-77
2022/12/21 04:34:46;;;;;;;48.45;17.52;;;;;;;5.34;100.00;100900.84;5043642;28;20024;-78
2022/12/21 04:39:56;;;;;;;;;;;;;;;5.23;100.00;100897.81;5038208;28;20067;-78
2022/12/21 04:42:22;;;;;;;48.05;17.23;;;;;;;5.20;100.00;100910.75;5061047;28;20318;-78
2022/12/21 04:44:47;;;;;;;66.15;21.27;;;;;;;5.20;100.00;100910.75;5051304;28;20056;-78
2022/12/21 04:47:12;;;;;;;57.05;19.25;;;;;;;5.20;100.00;100909.88;5044224;28;20103;-78
2022/12/21 04:49:38;;;;;;;57.10;19.85;;;;;;;5.18;100.00;100914.13;5062869;28;20036;-76
2022/12/21 04:52:03;;;;;;;62.50;19.30;;;;;;;5.16;100.00;100910.59;5069439;28;20294;-78
2022/12/21 04:54:28;;;;;;;72.40;20.52;;;;;;;5.15;100.00;100914.03;5046145;28;20067;-77
2022/12/21 04:56:54;;;;;;;84.72;23.17;;;;;;;5.15;100.00;100916.63;5043616;28;20024;-77
2022/12/21 04:59:19;;;;;;;96.55;27.40;;;;;;;5.20;100.00;100917.72;5061400;28;20033;-77
2022/12/21 05:01:44;;;;;;;102.13;26.63;;;;;;;5.25;100.00;100908.34;5051442;28;20063;-78
2022/12/21 05:04:10;;;;;;;94.18;26.08;;;;;;;5.27;100.00;100911.91;5051498;28;20100;-77
2022/12/21 05:06:36;;;;;;;141.18;27.67;;;;;;;5.32;100.00;100909.47;5049138;28;20108;-77
2022/12/21 05:09:01;;;;;;;87.32;26.30;;;;;;;5.33;100.00;100904.31;5048721;28;20491;-78
2022/12/21 05:11:27;;;;;;;94.72;25.50;;;;;;;5.33;100.00;100901.72;5047351;28;20115;-78
2022/12/21 05:13:52;;;;;;;103.35;27.60;;;;;;;5.36;100.00;100888.78;5048787;28;20080;-77
2022/12/21 05:16:20;;;;;;;85.47;25.98;;;;;;;5.36;100.00;100883.56;5047300;28;20040;-76
2022/12/21 05:18:48;;;;;;;94.28;25.35;;;;;;;5.42;100.00;100882.91;5048276;28;20032;-76
2022/12/21 05:21:14;;;;;;;79.22;24.27;;;;;;;5.46;100.00;100891.75;5048836;28;20051;-77
2022/12/21 05:23:39;;;;;;;66.00;23.55;;;;;;;5.46;100.00;100896.97;5036128;28;20485;-78
2022/12/21 05:26:06;;;;;;;86.85;24.90;;;;;;;5.46;100.00;100897.84;5049826;28;20498;-77
2022/12/21 05:28:31;;;;;;;81.22;23.63;;;;;;;5.50;100.00;100897.13;5062043;28;20030;-77
2022/12/21 05:30:57;;;;;;;108.93;26.70;;;;;;;5.51;100.00;100895.41;5050797;28;20092;-78
2022/12/21 05:33:23;;;;;;;66.40;23.10;;;;;;;5.52;100.00;100912.84;5048110;28;20025;-76
2022/12/21 05:35:48;;;;;;;134.07;26.05;;;;;;;5.51;100.00;100909.34;5053482;28;20029;-76
2022/12/21 05:38:14;;;;;;;142.77;28.30;;;;;;;5.48;100.00;100909.25;5045415;28;20047;-76
2022/12/21 05:40:39;;;;;;;72.07;23.65;;;;;;;5.52;100.00;100907.63;5046397;28;20024;-75
2022/12/21 05:43:05;;;;;;;129.57;30.05;;;;;;;5.51;100.00;100906.75;5046239;28;20032;-76
2022/12/21 05:45:31;;;;;;;118.30;28.00;;;;;;;5.50;100.00;100904.06;5045327;28;20020;-77
2022/12/21 05:47:56;;;;;;;106.43;29.45;;;;;;;5.51;100.00;100898.03;5040639;28;20037;-76
2022/12/21 05:50:22;;;;;;;229.27;32.40;;;;;;;5.50;100.00;100891.91;5046933;28;20025;-78
2022/12/21 05:52:48;;;;;;;149.43;27.20;;;;;;;5.51;100.00;100892.81;5052422;28;20025;-78
2022/12/21 05:55:13;;;;;;;78.82;28.67;;;;;;;5.52;100.00;100894.56;5051149;28;20033;-78
2022/12/21 05:57:38;;;;;;;176.57;30.73;;;;;;;5.55;100.00;100886.88;5050954;28;20029;-78
2022/12/21 06:00:04;;;;;;;126.47;30.48;;;;;;;5.55;100.00;100881.66;5052522;28;20052;-77
2022/12/21 06:02:30;;;;;;;107.43;29.75;;;;;;;5.55;100.00;100879.03;5052055;28;20071;-78
2022/12/21 06:04:56;;;;;;;137.73;30.83;;;;;;;5.54;100.00;100877.25;5053534;28;20021;-78
2022/12/21 06:07:21;;;;;;;73.22;29.20;;;;;;;5.56;100.00;100878.19;5050821;28;20031;-79
2022/12/21 06:09:46;;;;;;;84.68;27.17;;;;;;;5.57;100.00;100885.19;5043722;28;20107;-78
2022/12/21 06:12:13;;;;;;;91.40;29.30;;;;;;;5.54;100.00;100879.88;5050496;28;20032;-78
2022/12/21 06:14:38;;;;;;;101.43;31.10;;;;;;;5.55;100.00;100889.47;5046638;28;20094;-77
2022/12/21 06:17:04;;;;;;;135.65;29.42;;;;;;;5.57;100.00;100882.59;5053246;28;20036;-75
2022/12/21 06:19:29;;;;;;;72.53;28.90;;;;;;;5.58;100.00;100880.03;5052516;28;20025;-72
2022/12/21 06:21:54;;;;;;;77.35;29.70;;;;;;;5.61;100.00;100881.00;5034308;28;20032;-76
2022/12/21 06:24:20;;;;;;;104.13;30.00;;;;;;;5.61;100.00;100883.59;5041975;28;20040;-77
2022/12/21 06:26:45;;;;;;;90.30;31.10;;;;;;;5.63;100.00;100882.81;5047595;28;20028;-78
2022/12/21 06:29:12;;;;;;;132.43;31.02;;;;;;;5.64;100.00;100875.88;5052467;28;20040;-76
2022/12/21 06:31:37;;;;;;;100.80;31.67;;;;;;;5.63;100.00;100877.59;5050911;28;20043;-76
2022/12/21 06:34:02;;;;;;;144.77;33.15;;;;;;;5.65;100.00;100875.94;5053069;28;20111;-78
2022/12/21 06:36:28;;;;;;;109.00;32.63;;;;;;;5.62;100.00;100873.22;5056389;28;20039;-78
2022/12/21 06:38:56;;;;;;;113.80;32.78;;;;;;;5.65;100.00;100886.38;5050530;28;20029;-76
2022/12/21 06:41:21;;;;;;;93.97;30.92;;;;;;;5.67;100.00;100889.94;5033938;28;20079;-76
2022/12/21 06:43:47;;;;;;;93.47;31.05;;;;;;;5.69;100.00;100890.88;5049798;28;20469;-76
2022/12/21 06:46:15;;;;;;;106.47;34.92;;;;;;;5.70;100.00;100890.03;5062515;28;20049;-77
2022/12/21 06:48:41;;;;;;;107.18;33.03;;;;;;;5.73;100.00;100900.59;5042008;28;20029;-77
2022/12/21 06:51:21;;;;;;;110.68;32.20;;;;;;;5.77;100.00;100903.34;5049027;28;20079;-77
2022/12/21 06:53:49;;;;;;;98.85;31.15;;;;;;;5.77;100.00;100911.16;5047557;28;20036;-76
2022/12/21 06:56:20;;;;;;;94.82;30.83;;;;;;;5.75;100.00;100913.69;5049484;28;20469;-76
2022/12/21 06:58:47;;;;;;;96.05;30.90;;;;;;;5.80;100.00;100921.72;5045257;28;20026;-77
2022/12/21 07:01:21;;;;;;;91.97;30.35;;;;;;;5.79;100.00;100909.50;5048511;28;20493;-75
2022/12/21 07:03:46;;;;;;;86.93;30.33;;;;;;;5.77;100.00;100921.63;5047717;28;20157;-76
2022/12/21 07:06:14;;;;;;;93.93;30.85;;;;;;;5.75;100.00;100921.53;5045286;28;20075;-75
2022/12/21 07:08:40;;;;;;;94.40;31.10;;;;;;;5.81;100.00;100923.50;5041626;28;20028;-74
2022/12/21 07:11:08;;;;;;;93.90;29.40;;;;;;;5.77;100.00;100921.63;5052454;28;20492;-76
2022/12/21 07:13:39;;;;;;;83.28;29.58;;;;;;;5.78;100.00;100925.97;5052532;28;20025;-77
2022/12/21 07:16:05;;;;;;;78.82;29.90;;;;;;;5.80;100.00;100926.94;5041364;28;20033;-74
2022/12/21 07:18:30;;;;;;;81.40;31.35;;;;;;;5.79;100.00;100930.38;5046536;28;20032;-76
2022/12/21 07:21:02;;;;;;;82.93;32.10;;;;;;;5.80;100.00;100929.56;5052265;28;20025;-76
2022/12/21 07:23:29;;;;;;;85.22;30.90;;;;;;;5.79;100.00;100922.53;5052086;28;20055;-76
2022/12/21 07:25:54;;;;;;;77.47;30.55;;;;;;;5.75;100.00;100921.53;5034581;28;20032;-75
2022/12/21 07:28:20;;;;;;;82.68;31.33;;;;;;;5.71;100.00;100917.94;5050699;28;20331;-76
2022/12/21 07:30:48;;;;;;;81.43;29.27;;;;;;;5.69;100.00;100913.47;5069118;28;20107;-78
2022/12/21 07:33:20;;;;;;;74.22;30.60;;;;;;;5.65;100.00;100909.84;5069469;28;20388;-76
2022/12/21 07:35:46;;;;;;;80.68;29.75;;;;;;;5.64;100.00;100900.25;5067778;28;20442;-77
2022/12/21 07:38:12;;;;;;;80.40;27.95;;;;;;;5.60;100.00;100906.19;5069262;28;20103;-77
2022/12/21 07:40:38;;;;;;;73.38;28.73;;;;;;;5.55;100.00;100911.25;5060901;28;20151;-77
2022/12/21 07:43:08;;;;;;;58.05;27.45;;;;;;;5.56;100.00;100912.13;5071601;28;20465;-76
2022/12/21 07:45:34;;;;;;;77.18;27.35;;;;;;;5.59;100.00;100907.03;5070364;28;20021;-76
2022/12/21 07:47:59;;;;;;;70.63;27.38;;;;;;;5.55;100.00;100903.41;5051833;28;20146;-77
2022/12/21 07:50:24;;;;;;;80.75;29.75;;;;;;;5.50;100.00;100902.34;5040979;28;20029;-76
2022/12/21 07:52:50;;;;;;;68.97;27.70;;;;;;;5.47;100.00;100904.84;5050719;28;20017;-78
2022/12/21 07:55:15;;;;;;;76.68;27.10;;;;;;;5.46;100.00;100904.78;5052623;28;20017;-78
2022/12/21 07:57:41;;;;;;;65.03;28.00;;;;;;;5.48;100.00;100908.31;5051132;28;20028;-77
2022/12/21 08:00:09;;;;;;;61.85;26.88;;;;;;;5.48;100.00;100908.31;5061071;28;20041;-77
2022/12/21 08:02:34;;;;;;;82.72;29.60;;;;;;;5.47;100.00;100912.66;5051327;28;20029;-76
2022/12/21 08:05:00;;;;;;;77.78;30.35;;;;;;;5.50;100.00;100911.91;5050107;28;20032;-76
2022/12/21 08:07:25;;;;;;;77.60;29.65;;;;;;;5.55;100.00;100912.97;5050114;28;20032;-75
2022/12/21 08:09:50;;;;;;;82.72;31.70;;;;;;;5.57;100.00;100913.91;5051364;28;20483;-76
2022/12/21 08:12:16;;;;;;;66.97;29.45;;;;;;;5.57;100.00;100909.59;5037346;28;20148;-75
2022/12/21 08:14:41;;;;;;;85.35;33.38;;;;;;;5.57;100.00;100912.19;5065299;28;20029;-70
2022/12/21 08:17:07;;;;;;;72.85;29.17;;;;;;;5.64;100.00;100921.13;5051590;28;20033;-70
2022/12/21 08:19:32;;;;;;;79.25;32.05;;;;;;;5.67;100.00;100925.56;5048429;28;20099;-71
2022/12/21 08:21:57;;;;;;;81.45;31.33;;;;;;;5.67;100.00;100921.25;5043598;28;20062;-71
2022/12/21 08:24:23;;;;;;;77.70;33.03;;;;;;;5.66;100.00;100924.69;5040904;28;20461;-71
2022/12/21 08:26:48;;;;;;;75.25;31.55;;;;;;;5.67;100.00;100925.56;5038753;28;20453;-72
2022/12/21 08:29:14;;;;;;;69.85;32.22;;;;;;;5.70;100.00;100921.38;5046965;28;20031;-72
2022/12/21 08:31:40;;;;;;;80.07;32.88;;;;;;;5.69;100.00;100930.03;5050450;28;20079;-72
2022/12/21 08:34:05;;;;;;;80.05;31.55;;;;;;;5.72;100.00;100917.13;5047592;28;20100;-72
2022/12/21 08:36:31;;;;;;;94.28;36.42;;;;;;;5.74;100.00;100931.09;5052648;28;20036;-71
2022/12/21 08:38:57;;;;;;;87.20;34.97;;;;;;;5.78;100.00;100928.59;5052831;28;20020;-71
2022/12/21 08:41:23;;;;;;;72.43;34.38;;;;;;;5.79;100.00;100933.88;5049397;28;20039;-72
2022/12/21 08:43:48;;;;;;;96.82;35.70;;;;;;;5.84;100.00;100928.84;5049498;28;20024;-72
2022/12/21 08:46:13;;;;;;;79.78;33.33;;;;;;;5.91;100.00;100928.22;5051007;28;20366;-72
2022/12/21 08:48:39;;;;;;;79.40;32.80;;;;;;;5.95;100.00;100919.66;5048107;28;20032;-72
2022/12/21 08:51:07;;;;;;;81.80;33.00;;;;;;;5.97;100.00;100920.63;5049840;28;20036;-72
2022/12/21 08:53:33;;;;;;;76.32;31.95;;;;;;;6.02;100.00;100908.66;5049261;28;20029;-71
2022/12/21 08:56:00;;;;;;;78.95;31.35;;;;;;;6.05;100.00;100902.63;5046314;28;20067;-72
2022/12/21 08:58:25;;;;;;;75.03;30.75;;;;;;;6.07;100.00;100911.41;5047698;28;20036;-72
2022/12/21 09:00:52;;;;;;;76.63;29.73;;;;;;;6.06;100.00;100914.84;5051664;28;20123;-73
2022/12/21 09:03:18;;;;;;;72.15;27.90;;;;;;;6.07;100.00;100919.25;5041251;28;20499;-71
2022/12/21 09:05:43;;;;;;;63.85;26.48;;;;;;;6.12;100.00;100916.81;5050019;28;20025;-72
2022/12/21 09:08:09;;;;;;;65.63;26.65;;;;;;;6.14;100.00;100915.16;5051428;28;20111;-72
2022/12/21 09:10:36;;;;;;;61.90;25.05;;;;;;;6.15;100.00;100909.09;5048811;28;20065;-71
2022/12/21 09:13:02;;;;;;;49.40;21.50;;;;;;;6.21;100.00;100914.53;5051538;28;20017;-72
2022/12/21 09:15:27;;;;;;;58.67;22.45;;;;;;;6.26;100.00;100912.97;5047253;28;20465;-74
2022/12/21 09:17:53;;;;;;;49.70;21.25;;;;;;;6.26;100.00;100915.56;5064038;28;20025;-72
2022/12/21 09:20:18;;;;;;;64.10;21.77;;;;;;;6.27;100.00;100909.53;5044212;28;20033;-71
2022/12/21 09:22:43;;;;;;;48.95;20.25;;;;;;;6.30;100.00;100908.75;5046961;28;20098;-72
2022/12/21 09:25:10;;;;;;;61.42;19.60;;;;;;;6.28;100.00;100908.69;5050146;28;20027;-71
2022/12/21 09:27:36;;;;;;;45.63;18.40;;;;;;;6.32;100.00;100901.84;5053406;28;20029;-71
2022/12/21 09:30:01;;;;;;;50.47;17.90;;;;;;;6.35;100.00;100905.44;5054616;28;20054;-70
2022/12/21 09:32:27;;;;;;;39.95;18.15;;;;;;;6.43;100.00;100902.19;5049781;28;20032;-71
2022/12/21 09:34:52;;;;;;;42.30;16.83;;;;;;;6.43;100.00;100894.34;5064173;28;20114;-70
2022/12/21 09:37:18;;;;;;;42.03;15.55;;;;;;;6.49;100.00;100894.59;5047738;28;20039;-71
2022/12/21 09:39:44;;;;;;;34.83;14.50;;;;;;;6.56;100.00;100901.78;5041559;28;20025;-71
2022/12/21 09:42:21;;;;;;;42.55;16.60;;;;;;;6.59;100.00;100907.09;5045477;28;20409;-72
2022/12/21 09:44:54;;;;;;;30.25;13.90;;;;;;;6.75;100.00;100905.91;5045572;28;20082;-70
2022/12/21 09:47:29;;;;;;;26.50;11.90;;;;;;;6.82;100.00;100907.00;5048790;28;20032;-70
2022/12/21 09:50:01;;;;;;;30.77;11.57;;;;;;;6.91;100.00;100904.69;5049499;28;20369;-69
2022/12/21 09:52:33;;;;;;;28.08;11.50;;;;;;;7.12;100.00;100908.81;5048238;28;20033;-70
2022/12/21 09:55:12;;;;;;;31.83;11.52;;;;;;;7.14;100.00;100913.28;5045992;28;20096;-71
2022/12/21 09:57:38;;;;;;;30.95;9.93;;;;;;;7.21;100.00;100909.13;5051266;28;20079;-71
2022/12/21 10:00:22;;;;;;;23.65;8.98;;;;;;;7.23;100.00;100908.31;5049622;28;20036;-71
2022/12/21 10:02:50;;;;;;;35.53;9.93;;;;;;;7.39;100.00;100909.69;5047285;28;20033;-69
2022/12/21 10:05:35;;;;;;;20.75;9.00;;;;;;;7.59;100.00;100912.00;5056324;28;20416;-69
2022/12/21 10:08:13;;;;;;;27.83;10.68;;;;;;;7.71;100.00;100914.13;5055527;28;20035;-71
2022/12/21 10:10:45;;;;;;;27.63;11.05;;;;;;;7.74;100.00;100916.81;5056750;28;20037;-69
2022/12/21 10:13:44;;;;;;;27.60;11.52;;;;;;;7.68;100.00;100911.41;5042266;28;20457;-69
2022/12/21 10:16:22;;;;;;;30.13;12.32;;;;;;;7.78;100.00;100910.81;5050751;28;20107;-71
2022/12/21 10:19:01;;;;;;;30.13;12.55;;;;;;;7.82;100.00;100910.06;5052777;28;20064;-70
2022/12/21 10:21:53;;;;;;;28.15;15.10;;;;;;;7.88;100.00;100919.81;5060500;28;21221;-71
2022/12/21 10:24:34;;;;;;;33.67;15.65;;;;;;;8.01;100.00;100927.19;5052664;28;20048;-70
2022/12/21 10:27:05;;;;;;;33.15;16.70;;;;;;;8.15;100.00;100929.31;5063356;28;20050;-70
2022/12/21 10:29:38;;;;;;;39.00;17.85;;;;;;;7.99;100.00;100928.91;5055998;28;20036;-70
2022/12/21 10:32:04;;;;;;;50.23;20.17;;;;;;;7.94;100.00;100928.75;5057168;28;20036;-70
2022/12/21 10:34:34;;;;;;;40.35;20.38;;;;;;;7.92;100.00;100937.41;5058480;28;20039;-70
2022/12/21 10:37:11;;;;;;;40.72;21.05;;;;;;;7.85;100.00;100936.34;5061057;28;20067;-70
2022/12/21 10:39:36;;;;;;;45.58;21.35;;;;;;;7.73;100.00;100930.75;5060046;28;20643;-71
2022/12/21 10:42:07;;;;;;;44.38;22.33;;;;;;;7.59;100.00;100932.97;5063398;28;20108;-71
2022/12/21 10:44:40;;;;;;;37.58;19.48;;;;;;;7.52;100.00;100925.78;5049720;28;20028;-71
2022/12/21 10:47:13;;;;;;;42.33;21.13;;;;;;;7.54;100.00;100930.22;5045166;28;20020;-71
2022/12/21 10:49:40;;;;;;;44.38;20.90;;;;;;;7.53;100.00;100923.19;5052145;28;20029;-71
2022/12/21 10:52:42;;;;;;;47.47;22.00;;;;;;;7.56;100.00;100922.41;5050993;28;20056;-71
2022/12/21 10:55:17;;;;;;;43.15;21.10;;;;;;;7.72;100.00;100916.78;5043493;28;20036;-70
2022/12/21 10:57:42;;;;;;;49.65;22.33;;;;;;;7.62;100.00;100916.47;5059470;28;20483;-71
2022/12/21 11:00:31;;;;;;;47.17;21.27;;;;;;;7.57;100.00;100913.72;5049712;28;20041;-71
2022/12/21 11:03:01;;;;;;;50.58;21.95;;;;;;;7.65;100.00;100912.22;5046389;28;20029;-70
2022/12/21 11:05:39;;;;;;;46.45;21.25;;;;;;;7.47;100.00;100919.50;5051375;28;20483;-72
2022/12/21 11:08:15;;;;;;;46.63;21.42;;;;;;;7.43;100.00;100910.66;5043800;28;20048;-71
2022/12/21 11:10:46;;;;;;;49.85;21.67;;;;;;;7.36;100.00;100920.06;5052415;28;20116;-70
2022/12/21 11:13:13;;;;;;;49.30;20.65;;;;;;;7.36;100.00;100914.81;5051820;28;20029;-71
2022/12/21 11:15:57;;;;;;;53.10;20.80;;;;;;;7.33;100.00;100908.63;5050175;28;20048;-71
2022/12/21 11:18:45;;;;;;;51.88;21.45;;;;;;;7.23;100.00;100907.41;5038608;28;20028;-71
2022/12/21 11:21:51;;;;;;;46.28;21.67;;;;;;;7.14;100.00;100894.06;5051807;28;20116;-71
2022/12/21 11:24:20;;;;;;;51.65;22.55;;;;;;;7.08;100.00;100908.72;4983838;28;20718;-71
2022/12/21 11:27:00;;;;;;;54.30;22.63;;;;;;;7.02;100.00;100905.03;5024818;28;20143;-71
2022/12/21 11:29:29;;;;;;;49.08;21.45;;;;;;;6.98;100.00;100906.66;5029926;28;20721;-71
2022/12/21 11:32:02;;;;;;;50.38;22.15;;;;;;;6.98;100.00;100901.41;5028287;28;20116;-71
2022/12/21 11:34:41;;;;;;;48.00;20.73;;;;;;;6.96;100.00;100896.97;5035298;28;20036;-71